sensor_id;sensor_type;location;lat;lon;timestamp;pressure;altitude;pressure_sealevel;temperature;humidity
7309;BME280;3695;53.330;9.876;2023-06-04T00:00:42;102704.47;;;12.18;100.00
7309;BME280;3695;53.330;9.876;2023-06-04T00:03:08;102708.50;;;12.22;100.00
7309;BME280;3695;53.330;9.876;2023-06-04T00:05:35;102710.50;;;12.28;100.00
7309;BME280;3695;53.330;9.876;2023-06-04T00:08:01;102712.31;;;12.13;100.00
7309;BME280;3695;53.330;9.876;2023-06-04T00:10:28;102703.31;;;12.12;100.00
7309;BME280;3695;53.330;9.876;2023-06-04T00:12:54;102704.75;;;12.23;100.00
7309;BME280;3695;53.330;9.876;2023-06-04T00:15:22;102704.81;;;12.15;100.00
7309;BME280;3695;53.330;9.876;2023-06-04T00:17:49;102704.81;;;12.15;100.00
7309;BME280;3695;53.330;9.876;2023-06-04T00:20:17;102704.53;;;12.33;100.00
7309;BME280;3695;53.330;9.876;2023-06-04T00:22:43;102707.31;;;12.02;100.00
7309;BME280;3695;53.330;9.876;2023-06-04T00:25:10;102720.06;;;12.01;100.00
7309;BME280;3695;53.330;9.876;2023-06-04T00:27:36;102713.03;;;12.07;100.00
7309;BME280;3695;53.330;9.876;2023-06-04T00:30:04;102721.56;;;12.04;100.00
7309;BME280;3695;53.330;9.876;2023-06-04T00:32:32;102714.81;;;12.00;100.00
7309;BME280;3695;53.330;9.876;2023-06-04T00:34:58;102711.84;;;12.09;100.00
7309;BME280;3695;53.330;9.876;2023-06-04T00:37:28;102723.97;;;11.98;100.00
7309;BME280;3695;53.330;9.876;2023-06-04T00:39:54;102714.19;;;12.12;100.00
7309;BME280;3695;53.330;9.876;2023-06-04T00:42:21;102714.84;;;11.91;100.00
7309;BME280;3695;53.330;9.876;2023-06-04T00:44:47;102713.72;;;11.86;100.00
7309;BME280;3695;53.330;9.876;2023-06-04T00:47:15;102716.91;;;11.89;100.00
7309;BME280;3695;53.330;9.876;2023-06-04T00:49:43;102717.94;;;11.88;100.00
7309;BME280;3695;53.330;9.876;2023-06-04T00:52:10;102728.50;;;11.75;100.00
7309;BME280;3695;53.330;9.876;2023-06-04T00:54:36;102722.72;;;11.78;100.00
7309;BME280;3695;53.330;9.876;2023-06-04T00:57:04;102729.88;;;11.71;100.00
7309;BME280;3695;53.330;9.876;2023-06-04T00:59:31;102723.38;;;11.88;100.00
7309;BME280;3695;53.330;9.876;2023-06-04T01:02:03;102727.16;;;11.71;100.00
7309;BME280;3695;53.330;9.876;2023-06-04T01:04:34;102736.66;;;11.83;100.00
7309;BME280;3695;53.330;9.876;2023-06-04T01:07:04;102731.97;;;11.61;100.00
7309;BME280;3695;53.330;9.876;2023-06-04T01:09:33;102736.50;;;11.68;100.00
7309;BME280;3695;53.330;9.876;2023-06-04T01:12:03;102739.63;;;11.57;100.00
7309;BME280;3695;53.330;9.876;2023-06-04T01:14:30;102737.47;;;11.76;100.00
7309;BME280;3695;53.330;9.876;2023-06-04T01:17:01;102738.69;;;11.73;100.00
7309;BME280;3695;53.330;9.876;2023-06-04T01:22:36;102735.41;;;11.55;100.00
7309;BME280;3695;53.330;9.876;2023-06-04T01:25:05;102741.38;;;11.50;100.00
7309;BME280;3695;53.330;9.876;2023-06-04T01:27:36;102734.69;;;11.61;100.00
7309;BME280;3695;53.330;9.876;2023-06-04T01:30:07;102740.66;;;11.56;100.00
7309;BME280;3695;53.330;9.876;2023-06-04T01:32:34;102742.25;;;11.74;100.00
7309;BME280;3695;53.330;9.876;2023-06-04T01:35:01;102741.13;;;11.60;100.00
7309;BME280;3695;53.330;9.876;2023-06-04T01:37:27;102735.97;;;11.73;100.00
7309;BME280;3695;53.330;9.876;2023-06-04T01:39:55;102738.06;;;11.63;100.00
7309;BME280;3695;53.330;9.876;2023-06-04T01:42:21;102736.56;;;11.60;100.00
7309;BME280;3695;53.330;9.876;2023-06-04T01:44:51;102740.78;;;11.63;100.00
7309;BME280;3695;53.330;9.876;2023-06-04T01:47:17;102724.41;;;11.87;100.00
7309;BME280;3695;53.330;9.876;2023-06-04T01:49:43;102737.66;;;11.74;100.00
7309;BME280;3695;53.330;9.876;2023-06-04T01:52:10;102719.91;;;11.63;100.00
7309;BME280;3695;53.330;9.876;2023-06-04T01:54:37;102724.09;;;11.74;100.00
7309;BME280;3695;53.330;9.876;2023-06-04T01:57:06;102724.41;;;11.79;100.00
7309;BME280;3695;53.330;9.876;2023-06-04T01:59:33;102723.41;;;11.80;100.00
7309;BME280;3695;53.330;9.876;2023-06-04T02:02:04;102721.81;;;11.55;100.00
7309;BME280;3695;53.330;9.876;2023-06-04T02:04:30;102728.84;;;11.72;100.00
7309;BME280;3695;53.330;9.876;2023-06-04T02:06:57;102727.19;;;11.63;100.00
7309;BME280;3695;53.330;9.876;2023-06-04T02:09:24;102725.03;;;11.58;100.00
7309;BME280;3695;53.330;9.876;2023-06-04T02:11:51;102729.91;;;11.63;100.00
7309;BME280;3695;53.330;9.876;2023-06-04T02:14:19;102728.38;;;11.68;100.00
7309;BME280;3695;53.330;9.876;2023-06-04T02:16:45;102728.38;;;11.68;100.00
7309;BME280;3695;53.330;9.876;2023-06-04T02:19:14;102727.03;;;11.64;100.00
7309;BME280;3695;53.330;9.876;2023-06-04T02:21:43;102730.69;;;11.49;100.00
7309;BME280;3695;53.330;9.876;2023-06-04T02:24:10;102734.06;;;11.51;100.00
7309;BME280;3695;53.330;9.876;2023-06-04T02:26:36;102733.03;;;11.52;100.00
7309;BME280;3695;53.330;9.876;2023-06-04T02:29:03;102729.53;;;11.35;100.00
7309;BME280;3695;53.330;9.876;2023-06-04T02:31:31;102733.78;;;11.38;100.00
7309;BME280;3695;53.330;9.876;2023-06-04T02:33:58;102734.16;;;11.65;100.00
7309;BME280;3695;53.330;9.876;2023-06-04T02:36:24;102735.78;;;11.44;100.00
7309;BME280;3695;53.330;9.876;2023-06-04T02:38:51;102727.38;;;11.61;100.00
7309;BME280;3695;53.330;9.876;2023-06-04T02:41:17;102734.59;;;11.46;100.00
7309;BME280;3695;53.330;9.876;2023-06-04T02:43:44;102732.59;;;11.71;100.00
7309;BME280;3695;53.330;9.876;2023-06-04T02:46:10;102733.00;;;11.60;100.00
7309;BME280;3695;53.330;9.876;2023-06-04T02:48:38;102736.34;;;11.70;100.00
7309;BME280;3695;53.330;9.876;2023-06-04T02:51:04;102737.53;;;11.67;100.00
7309;BME280;3695;53.330;9.876;2023-06-04T02:53:31;102732.22;;;11.74;100.00
7309;BME280;3695;53.330;9.876;2023-06-04T02:55:57;102733.00;;;11.60;100.00
7309;BME280;3695;53.330;9.876;2023-06-04T02:58:24;102726.59;;;11.53;100.00
7309;BME280;3695;53.330;9.876;2023-06-04T03:00:52;102731.56;;;11.41;100.00
7309;BME280;3695;53.330;9.876;2023-06-04T03:03:19;102739.94;;;11.62;100.00
7309;BME280;3695;53.330;9.876;2023-06-04T03:05:46;102734.47;;;11.71;100.00
7309;BME280;3695;53.330;9.876;2023-06-04T03:08:13;102736.81;;;11.43;100.00
7309;BME280;3695;53.330;9.876;2023-06-04T03:10:39;102737.59;;;11.59;100.00
7309;BME280;3695;53.330;9.876;2023-06-04T03:13:06;102733.78;;;11.29;100.00
7309;BME280;3695;53.330;9.876;2023-06-04T03:15:33;102736.31;;;11.78;100.00
7309;BME280;3695;53.330;9.876;2023-06-04T03:17:59;102733.13;;;11.35;100.00
7309;BME280;3695;53.330;9.876;2023-06-04T03:20:25;102732.69;;;11.55;100.00
7309;BME280;3695;53.330;9.876;2023-06-04T03:22:53;102736.19;;;11.24;100.00
7309;BME280;3695;53.330;9.876;2023-06-04T03:25:20;102733.06;;;11.44;100.00
7309;BME280;3695;53.330;9.876;2023-06-04T03:27:46;102735.09;;;11.50;100.00
7309;BME280;3695;53.330;9.876;2023-06-04T03:30:14;102731.59;;;11.64;100.00
7309;BME280;3695;53.330;9.876;2023-06-04T03:32:40;102729.84;;;11.79;100.00
7309;BME280;3695;53.330;9.876;2023-06-04T03:35:09;102733.22;;;11.81;100.00
7309;BME280;3695;53.330;9.876;2023-06-04T03:37:35;102734.81;;;11.67;100.00
7309;BME280;3695;53.330;9.876;2023-06-04T03:40:05;102724.88;;;11.52;100.00
7309;BME280;3695;53.330;9.876;2023-06-04T03:42:32;102727.19;;;11.24;100.00
7309;BME280;3695;53.330;9.876;2023-06-04T03:44:58;102729.59;;;11.19;100.00
7309;BME280;3695;53.330;9.876;2023-06-04T03:47:25;102731.38;;;10.95;100.00
7309;BME280;3695;53.330;9.876;2023-06-04T03:49:51;102734.25;;;10.78;100.00
7309;BME280;3695;53.330;9.876;2023-06-04T03:52:18;102739.06;;;10.51;100.00
7309;BME280;3695;53.330;9.876;2023-06-04T03:54:44;102747.69;;;10.47;100.00
7309;BME280;3695;53.330;9.876;2023-06-04T03:57:12;102746.50;;;10.57;100.00
7309;BME280;3695;53.330;9.876;2023-06-04T03:59:39;102754.13;;;10.62;100.00
7309;BME280;3695;53.330;9.876;2023-06-04T04:02:05;102755.63;;;10.81;100.00
7309;BME280;3695;53.330;9.876;2023-06-04T04:04:32;102745.44;;;10.91;100.00
7309;BME280;3695;53.330;9.876;2023-06-04T04:06:59;102748.47;;;11.04;100.00
7309;BME280;3695;53.330;9.876;2023-06-04T04:09:26;102744.06;;;11.03;100.00
7309;BME280;3695;53.330;9.876;2023-06-04T04:11:52;102750.69;;;10.84;100.00
7309;BME280;3695;53.330;9.876;2023-06-04T04:14:20;102748.50;;;10.96;100.00
7309;BME280;3695;53.330;9.876;2023-06-04T04:16:47;102749.81;;;11.08;100.00
7309;BME280;3695;53.330;9.876;2023-06-04T04:19:13;102756.72;;;11.19;100.00
7309;BME280;3695;53.330;9.876;2023-06-04T04:21:40;102758.09;;;11.15;100.00
7309;BME280;3695;53.330;9.876;2023-06-04T04:24:07;102754.03;;;11.19;100.00
7309;BME280;3695;53.330;9.876;2023-06-04T04:26:33;102760.50;;;11.10;100.00
7309;BME280;3695;53.330;9.876;2023-06-04T04:29:00;102765.69;;;11.35;100.00
7309;BME280;3695;53.330;9.876;2023-06-04T04:31:27;102764.69;;;11.37;100.00
7309;BME280;3695;53.330;9.876;2023-06-04T04:33:55;102762.94;;;11.44;100.00
7309;BME280;3695;53.330;9.876;2023-06-04T04:36:22;102759.91;;;11.39;100.00
7309;BME280;3695;53.330;9.876;2023-06-04T04:38:48;102769.53;;;11.49;100.00
7309;BME280;3695;53.330;9.876;2023-06-04T04:41:19;102769.50;;;11.57;100.00
7309;BME280;3695;53.330;9.876;2023-06-04T04:43:46;102766.59;;;11.59;100.00
7309;BME280;3695;53.330;9.876;2023-06-04T04:46:12;102775.06;;;11.64;100.00
7309;BME280;3695;53.330;9.876;2023-06-04T04:48:40;102777.06;;;11.78;100.00
7309;BME280;3695;53.330;9.876;2023-06-04T04:51:07;102774.69;;;11.83;100.00
7309;BME280;3695;53.330;9.876;2023-06-04T04:53:34;102784.97;;;11.96;100.00
7309;BME280;3695;53.330;9.876;2023-06-04T04:56:01;102783.78;;;11.98;100.00
7309;BME280;3695;53.330;9.876;2023-06-04T04:58:27;102789.34;;;12.28;100.00
7309;BME280;3695;53.330;9.876;2023-06-04T05:00:54;102776.59;;;12.51;100.00
7309;BME280;3695;53.330;9.876;2023-06-04T05:03:20;102780.59;;;12.41;100.00
7309;BME280;3695;53.330;9.876;2023-06-04T05:05:48;102769.97;;;12.69;100.00
7309;BME280;3695;53.330;9.876;2023-06-04T05:08:15;102768.22;;;12.76;100.00
7309;BME280;3695;53.330;9.876;2023-06-04T05:10:41;102771.25;;;12.81;100.00
7309;BME280;3695;53.330;9.876;2023-06-04T05:13:07;102769.44;;;12.73;100.00
7309;BME280;3695;53.330;9.876;2023-06-04T05:15:34;102772.50;;;12.93;100.00
7309;BME280;3695;53.330;9.876;2023-06-04T05:18:00;102761.53;;;13.01;100.00
7309;BME280;3695;53.330;9.876;2023-06-04T05:20:28;102763.50;;;12.70;100.00
7309;BME280;3695;53.330;9.876;2023-06-04T05:22:56;102768.47;;;12.66;100.00
7309;BME280;3695;53.330;9.876;2023-06-04T05:25:23;102767.16;;;13.00;100.00
7309;BME280;3695;53.330;9.876;2023-06-04T05:27:52;102765.19;;;13.08;100.00
7309;BME280;3695;53.330;9.876;2023-06-04T05:30:19;102778.00;;;13.22;100.00
7309;BME280;3695;53.330;9.876;2023-06-04T05:32:46;102766.47;;;13.35;100.00
7309;BME280;3695;53.330;9.876;2023-06-04T05:35:12;102771.53;;;13.38;100.00
7309;BME280;3695;53.330;9.876;2023-06-04T05:37:39;102780.16;;;13.57;100.00
7309;BME280;3695;53.330;9.876;2023-06-04T05:40:09;102774.78;;;13.63;100.00
7309;BME280;3695;53.330;9.876;2023-06-04T05:42:36;102759.19;;;13.72;100.00
7309;BME280;3695;53.330;9.876;2023-06-04T05:45:03;102760.19;;;13.85;100.00
7309;BME280;3695;53.330;9.876;2023-06-04T05:47:30;102759.63;;;13.90;100.00
7309;BME280;3695;53.330;9.876;2023-06-04T05:49:56;102755.47;;;13.94;100.00
7309;BME280;3695;53.330;9.876;2023-06-04T05:52:23;102760.28;;;14.13;100.00
7309;BME280;3695;53.330;9.876;2023-06-04T05:54:50;102756.97;;;14.18;100.00
7309;BME280;3695;53.330;9.876;2023-06-04T05:57:17;102754.94;;;14.20;100.00
7309;BME280;3695;53.330;9.876;2023-06-04T05:59:44;102756.22;;;14.24;100.00
7309;BME280;3695;53.330;9.876;2023-06-04T06:02:11;102748.28;;;14.29;100.00
7309;BME280;3695;53.330;9.876;2023-06-04T06:04:37;102740.91;;;14.44;100.00
7309;BME280;3695;53.330;9.876;2023-06-04T06:07:04;102740.91;;;14.44;100.00
7309;BME280;3695;53.330;9.876;2023-06-04T06:09:30;102742.44;;;14.32;100.00
7309;BME280;3695;53.330;9.876;2023-06-04T06:11:57;102740.44;;;14.41;100.00
7309;BME280;3695;53.330;9.876;2023-06-04T06:14:25;102745.19;;;14.54;100.00
7309;BME280;3695;53.330;9.876;2023-06-04T06:16:51;102744.47;;;14.66;100.00
7309;BME280;3695;53.330;9.876;2023-06-04T06:19:18;102740.88;;;14.66;100.00
7309;BME280;3695;53.330;9.876;2023-06-04T06:21:44;102743.44;;;14.67;100.00
7309;BME280;3695;53.330;9.876;2023-06-04T06:24:12;102745.22;;;14.82;100.00
7309;BME280;3695;53.330;9.876;2023-06-04T06:26:38;102738.41;;;14.99;100.00
7309;BME280;3695;53.330;9.876;2023-06-04T06:29:05;102737.75;;;14.97;100.00
7309;BME280;3695;53.330;9.876;2023-06-04T06:31:32;102739.59;;;14.90;100.00
7309;BME280;3695;53.330;9.876;2023-06-04T06:33:59;102733.63;;;15.07;100.00
7309;BME280;3695;53.330;9.876;2023-06-04T06:36:25;102743.16;;;14.90;100.00
7309;BME280;3695;53.330;9.876;2023-06-04T06:38:54;102738.56;;;15.25;100.00
7309;BME280;3695;53.330;9.876;2023-06-04T06:41:21;102744.44;;;15.22;100.00
7309;BME280;3695;53.330;9.876;2023-06-04T06:43:47;102736.91;;;15.31;100.00
7309;BME280;3695;53.330;9.876;2023-06-04T06:46:14;102734.81;;;15.33;100.00
7309;BME280;3695;53.330;9.876;2023-06-04T06:48:42;102743.50;;;15.43;100.00
7309;BME280;3695;53.330;9.876;2023-06-04T06:51:13;102736.94;;;15.37;100.00
7309;BME280;3695;53.330;9.876;2023-06-04T06:53:40;102738.03;;;15.43;100.00
7309;BME280;3695;53.330;9.876;2023-06-04T06:56:07;102736.28;;;15.63;100.00
7309;BME280;3695;53.330;9.876;2023-06-04T06:58:33;102739.13;;;15.55;100.00
7309;BME280;3695;53.330;9.876;2023-06-04T07:01:03;102747.97;;;15.57;100.00
7309;BME280;3695;53.330;9.876;2023-06-04T07:03:39;102747.59;;;15.60;100.00
7309;BME280;3695;53.330;9.876;2023-06-04T07:06:07;102749.75;;;15.65;100.00
7309;BME280;3695;53.330;9.876;2023-06-04T07:08:34;102745.78;;;15.81;100.00
7309;BME280;3695;53.330;9.876;2023-06-04T07:11:02;102754.03;;;15.94;100.00
7309;BME280;3695;53.330;9.876;2023-06-04T07:13:29;102747.69;;;15.87;100.00
7309;BME280;3695;53.330;9.876;2023-06-04T07:15:57;102747.91;;;15.79;100.00
7309;BME280;3695;53.330;9.876;2023-06-04T07:18:23;102748.97;;;15.91;100.00
7309;BME280;3695;53.330;9.876;2023-06-04T07:20:50;102743.31;;;16.05;100.00
7309;BME280;3695;53.330;9.876;2023-06-04T07:23:19;102757.84;;;16.06;100.00
7309;BME280;3695;53.330;9.876;2023-06-04T07:25:46;102751.59;;;16.32;100.00
7309;BME280;3695;53.330;9.876;2023-06-04T07:28:12;102752.44;;;16.39;100.00
7309;BME280;3695;53.330;9.876;2023-06-04T07:30:39;102742.78;;;16.63;100.00
7309;BME280;3695;53.330;9.876;2023-06-04T07:33:05;102742.59;;;16.71;100.00
7309;BME280;3695;53.330;9.876;2023-06-04T07:35:32;102742.56;;;16.45;100.00
7309;BME280;3695;53.330;9.876;2023-06-04T07:37:59;102743.88;;;16.68;100.00
7309;BME280;3695;53.330;9.876;2023-06-04T07:40:27;102731.88;;;16.70;100.00
7309;BME280;3695;53.330;9.876;2023-06-04T07:42:53;102734.81;;;16.68;100.00
7309;BME280;3695;53.330;9.876;2023-06-04T07:45:20;102735.22;;;16.85;100.00
7309;BME280;3695;53.330;9.876;2023-06-04T07:47:46;102734.78;;;16.81;100.00
7309;BME280;3695;53.330;9.876;2023-06-04T07:50:13;102739.44;;;16.74;100.00
7309;BME280;3695;53.330;9.876;2023-06-04T07:52:39;102735.63;;;16.82;100.00
7309;BME280;3695;53.330;9.876;2023-06-04T07:55:07;102733.94;;;16.87;100.00
7309;BME280;3695;53.330;9.876;2023-06-04T07:57:36;102726.75;;;16.99;100.00
7309;BME280;3695;53.330;9.876;2023-06-04T08:00:03;102730.13;;;17.02;100.00
7309;BME280;3695;53.330;9.876;2023-06-04T08:02:30;102728.00;;;17.17;100.00
7309;BME280;3695;53.330;9.876;2023-06-04T08:04:57;102722.13;;;17.07;100.00
7309;BME280;3695;53.330;9.876;2023-06-04T08:07:24;102726.94;;;17.18;100.00
7309;BME280;3695;53.330;9.876;2023-06-04T08:09:51;102724.84;;;17.13;100.00
7309;BME280;3695;53.330;9.876;2023-06-04T08:12:17;102723.78;;;17.21;100.00
7309;BME280;3695;53.330;9.876;2023-06-04T08:14:45;102729.63;;;17.31;100.00
7309;BME280;3695;53.330;9.876;2023-06-04T08:17:11;102720.66;;;17.69;100.00
7309;BME280;3695;53.330;9.876;2023-06-04T08:19:38;102718.16;;;17.60;100.00
7309;BME280;3695;53.330;9.876;2023-06-04T08:22:04;102718.34;;;17.66;100.00
7309;BME280;3695;53.330;9.876;2023-06-04T08:24:31;102716.88;;;17.63;100.00
7309;BME280;3695;53.330;9.876;2023-06-04T08:26:58;102714.34;;;17.61;100.00
7309;BME280;3695;53.330;9.876;2023-06-04T08:29:24;102710.91;;;17.79;100.00
7309;BME280;3695;53.330;9.876;2023-06-04T08:31:52;102713.91;;;18.09;100.00
7309;BME280;3695;53.330;9.876;2023-06-04T08:34:18;102718.72;;;18.14;100.00
7309;BME280;3695;53.330;9.876;2023-06-04T08:36:45;102711.16;;;17.71;100.00
7309;BME280;3695;53.330;9.876;2023-06-04T08:39:11;102718.00;;;17.93;100.00
7309;BME280;3695;53.330;9.876;2023-06-04T08:41:42;102720.22;;;17.72;100.00
7309;BME280;3695;53.330;9.876;2023-06-04T08:44:09;102720.09;;;17.98;100.00
7309;BME280;3695;53.330;9.876;2023-06-04T08:46:37;102724.59;;;18.49;100.00
7309;BME280;3695;53.330;9.876;2023-06-04T08:49:07;102721.53;;;17.56;100.00
7309;BME280;3695;53.330;9.876;2023-06-04T08:51:36;102726.22;;;17.93;100.00
7309;BME280;3695;53.330;9.876;2023-06-04T08:54:03;102732.75;;;17.99;100.00
7309;BME280;3695;53.330;9.876;2023-06-04T08:56:30;102726.19;;;18.32;100.00
7309;BME280;3695;53.330;9.876;2023-06-04T08:59:01;102728.34;;;17.91;100.00
7309;BME280;3695;53.330;9.876;2023-06-04T09:01:27;102725.22;;;18.19;100.00
7309;BME280;3695;53.330;9.876;2023-06-04T09:03:54;102718.66;;;18.20;100.00
7309;BME280;3695;53.330;9.876;2023-06-04T09:06:24;102728.03;;;18.38;100.00
7309;BME280;3695;53.330;9.876;2023-06-04T09:08:53;102730.94;;;18.18;100.00
7309;BME280;3695;53.330;9.876;2023-06-04T09:11:23;102723.88;;;18.29;100.00
7309;BME280;3695;53.330;9.876;2023-06-04T09:13:52;102727.06;;;18.57;100.00
7309;BME280;3695;53.330;9.876;2023-06-04T09:16:19;102729.34;;;18.60;100.00
7309;BME280;3695;53.330;9.876;2023-06-04T09:18:46;102729.56;;;18.83;100.00
7309;BME280;3695;53.330;9.876;2023-06-04T09:21:13;102733.41;;;18.82;100.00
7309;BME280;3695;53.330;9.876;2023-06-04T09:23:45;102726.28;;;19.18;100.00
7309;BME280;3695;53.330;9.876;2023-06-04T09:26:12;102728.72;;;19.44;100.00
7309;BME280;3695;53.330;9.876;2023-06-04T09:28:40;102721.94;;;19.65;100.00
7309;BME280;3695;53.330;9.876;2023-06-04T09:31:08;102721.06;;;19.28;100.00
7309;BME280;3695;53.330;9.876;2023-06-04T09:33:42;102718.19;;;18.80;100.00
7309;BME280;3695;53.330;9.876;2023-06-04T09:36:08;102720.63;;;18.95;100.00
7309;BME280;3695;53.330;9.876;2023-06-04T09:38:35;102705.88;;;19.26;100.00
7309;BME280;3695;53.330;9.876;2023-06-04T09:41:03;102707.94;;;19.30;100.00
7309;BME280;3695;53.330;9.876;2023-06-04T09:43:32;102713.91;;;19.27;100.00
7309;BME280;3695;53.330;9.876;2023-06-04T09:46:08;102722.63;;;19.42;100.00
7309;BME280;3695;53.330;9.876;2023-06-04T09:48:35;102715.44;;;19.41;100.00
7309;BME280;3695;53.330;9.876;2023-06-04T09:51:06;102720.19;;;19.83;100.00
7309;BME280;3695;53.330;9.876;2023-06-04T09:53:33;102715.91;;;19.57;100.00
7309;BME280;3695;53.330;9.876;2023-06-04T09:56:01;102721.28;;;19.81;100.00
7309;BME280;3695;53.330;9.876;2023-06-04T09:58:30;102730.81;;;19.97;100.00
7309;BME280;3695;53.330;9.876;2023-06-04T10:00:59;102723.97;;;19.70;100.00
7309;BME280;3695;53.330;9.876;2023-06-04T10:03:30;102726.25;;;19.91;100.00
7309;BME280;3695;53.330;9.876;2023-06-04T10:05:58;102719.44;;;19.94;100.00
7309;BME280;3695;53.330;9.876;2023-06-04T10:08:26;102720.56;;;19.86;100.00
7309;BME280;3695;53.330;9.876;2023-06-04T10:10:55;102716.03;;;19.25;100.00
7309;BME280;3695;53.330;9.876;2023-06-04T10:13:23;102713.81;;;19.15;100.00
7309;BME280;3695;53.330;9.876;2023-06-04T10:15:52;102716.19;;;19.48;100.00
7309;BME280;3695;53.330;9.876;2023-06-04T10:18:18;102711.44;;;19.37;100.00
7309;BME280;3695;53.330;9.876;2023-06-04T10:20:45;102705.03;;;19.62;100.00
7309;BME280;3695;53.330;9.876;2023-06-04T10:23:12;102703.28;;;19.67;100.00
7309;BME280;3695;53.330;9.876;2023-06-04T10:25:39;102703.00;;;19.87;100.00
7309;BME280;3695;53.330;9.876;2023-06-04T10:28:05;102710.94;;;19.95;100.00
7309;BME280;3695;53.330;9.876;2023-06-04T10:30:32;102715.13;;;19.68;100.00
7309;BME280;3695;53.330;9.876;2023-06-04T10:33:00;102708.22;;;19.77;100.00
7309;BME280;3695;53.330;9.876;2023-06-04T10:35:30;102709.56;;;20.16;100.00
7309;BME280;3695;53.330;9.876;2023-06-04T10:38:05;102707.50;;;20.11;100.00
7309;BME280;3695;53.330;9.876;2023-06-04T10:40:32;102710.03;;;20.25;100.00
7309;BME280;3695;53.330;9.876;2023-06-04T10:43:04;102716.88;;;19.62;100.00
7309;BME280;3695;53.330;9.876;2023-06-04T10:45:31;102721.03;;;19.83;100.00
7309;BME280;3695;53.330;9.876;2023-06-04T10:48:01;102718.16;;;19.78;100.00
7309;BME280;3695;53.330;9.876;2023-06-04T10:50:28;102715.00;;;20.34;100.00
7309;BME280;3695;53.330;9.876;2023-06-04T10:52:55;102709.47;;;19.63;100.00
7309;BME280;3695;53.330;9.876;2023-06-04T10:55:24;102714.81;;;20.18;100.00
7309;BME280;3695;53.330;9.876;2023-06-04T10:57:52;102717.66;;;19.99;100.00
7309;BME280;3695;53.330;9.876;2023-06-04T11:00:18;102706.13;;;19.91;100.00
7309;BME280;3695;53.330;9.876;2023-06-04T11:02:52;102709.44;;;20.23;100.00
7309;BME280;3695;53.330;9.876;2023-06-04T11:05:22;102702.25;;;20.87;100.00
7309;BME280;3695;53.330;9.876;2023-06-04T11:07:49;102700.31;;;20.75;100.00
7309;BME280;3695;53.330;9.876;2023-06-04T11:10:17;102712.78;;;20.13;100.00
7309;BME280;3695;53.330;9.876;2023-06-04T11:12:45;102707.91;;;20.27;100.00
7309;BME280;3695;53.330;9.876;2023-06-04T11:15:12;102700.81;;;20.49;100.00
7309;BME280;3695;53.330;9.876;2023-06-04T11:17:49;102693.47;;;21.13;100.00
7309;BME280;3695;53.330;9.876;2023-06-04T11:20:16;102698.41;;;20.41;100.00
7309;BME280;3695;53.330;9.876;2023-06-04T11:22:51;102700.69;;;20.56;100.00
7309;BME280;3695;53.330;9.876;2023-06-04T11:25:18;102692.06;;;20.99;100.00
7309;BME280;3695;53.330;9.876;2023-06-04T11:27:44;102691.56;;;20.79;100.00
7309;BME280;3695;53.330;9.876;2023-06-04T11:30:12;102697.69;;;20.46;100.00
7309;BME280;3695;53.330;9.876;2023-06-04T11:32:39;102690.75;;;20.66;100.00
7309;BME280;3695;53.330;9.876;2023-06-04T11:35:06;102687.38;;;20.41;100.00
7309;BME280;3695;53.330;9.876;2023-06-04T11:37:33;102682.72;;;20.88;100.00
7309;BME280;3695;53.330;9.876;2023-06-04T11:40:01;102681.84;;;21.11;100.00
7309;BME280;3695;53.330;9.876;2023-06-04T11:42:30;102689.78;;;20.96;100.00
7309;BME280;3695;53.330;9.876;2023-06-04T11:44:57;102678.34;;;21.16;100.00
7309;BME280;3695;53.330;9.876;2023-06-04T11:47:24;102676.13;;;21.53;100.00
7309;BME280;3695;53.330;9.876;2023-06-04T11:49:54;102686.91;;;20.91;100.00
7309;BME280;3695;53.330;9.876;2023-06-04T11:52:21;102679.31;;;21.10;100.00
7309;BME280;3695;53.330;9.876;2023-06-04T11:54:48;102680.56;;;21.54;100.00
7309;BME280;3695;53.330;9.876;2023-06-04T11:57:16;102679.06;;;21.63;100.00
7309;BME280;3695;53.330;9.876;2023-06-04T11:59:43;102674.44;;;21.00;100.00
7309;BME280;3695;53.330;9.876;2023-06-04T12:02:10;102678.00;;;21.24;100.00
7309;BME280;3695;53.330;9.876;2023-06-04T12:04:37;102674.19;;;21.53;100.00
7309;BME280;3695;53.330;9.876;2023-06-04T12:07:04;102679.81;;;21.06;100.00
7309;BME280;3695;53.330;9.876;2023-06-04T12:09:32;102684.53;;;20.83;100.00
7309;BME280;3695;53.330;9.876;2023-06-04T12:12:00;102679.13;;;20.88;100.00
7309;BME280;3695;53.330;9.876;2023-06-04T12:14:28;102678.97;;;21.29;100.00
7309;BME280;3695;53.330;9.876;2023-06-04T12:16:56;102672.38;;;21.59;100.00
7309;BME280;3695;53.330;9.876;2023-06-04T12:19:23;102676.97;;;20.90;100.00
7309;BME280;3695;53.330;9.876;2023-06-04T12:21:59;102669.50;;;22.11;100.00
7309;BME280;3695;53.330;9.876;2023-06-04T12:24:26;102667.94;;;21.29;100.00
7309;BME280;3695;53.330;9.876;2023-06-04T12:27:01;102670.41;;;21.71;100.00
7309;BME280;3695;53.330;9.876;2023-06-04T12:29:29;102664.59;;;21.56;100.00
7309;BME280;3695;53.330;9.876;2023-06-04T12:32:02;102668.66;;;22.10;100.00
7309;BME280;3695;53.330;9.876;2023-06-04T12:34:29;102662.56;;;22.08;100.00
7309;BME280;3695;53.330;9.876;2023-06-04T12:36:55;102662.31;;;21.81;100.00
7309;BME280;3695;53.330;9.876;2023-06-04T12:39:22;102660.44;;;21.98;100.00
7309;BME280;3695;53.330;9.876;2023-06-04T12:41:48;102657.03;;;22.08;100.00
7309;BME280;3695;53.330;9.876;2023-06-04T12:44:15;102646.34;;;22.67;100.00
7309;BME280;3695;53.330;9.876;2023-06-04T12:46:42;102655.97;;;22.26;100.00
7309;BME280;3695;53.330;9.876;2023-06-04T12:49:09;102649.34;;;22.44;100.00
7309;BME280;3695;53.330;9.876;2023-06-04T12:51:35;102650.75;;;22.46;100.00
7309;BME280;3695;53.330;9.876;2023-06-04T12:54:03;102640.41;;;22.92;100.00
7309;BME280;3695;53.330;9.876;2023-06-04T12:56:30;102658.56;;;21.87;100.00
7309;BME280;3695;53.330;9.876;2023-06-04T12:58:56;102653.00;;;22.16;100.00
7309;BME280;3695;53.330;9.876;2023-06-04T13:01:23;102657.81;;;22.37;100.00
7309;BME280;3695;53.330;9.876;2023-06-04T13:03:50;102657.44;;;22.17;100.00